sensor_id;sensor_type;location;lat;lon;timestamp;P1;durP1;ratioP1;P2;durP2;ratioP2
22160;SDS011;49035;48.812;11.762;2022-09-14T00:01:37;22.67;;;13.90;;
22160;SDS011;49035;48.812;11.762;2022-09-14T00:04:05;21.80;;;13.75;;
22160;SDS011;49035;48.812;11.762;2022-09-14T00:06:32;16.25;;;13.32;;
22160;SDS011;49035;48.812;11.762;2022-09-14T00:08:58;16.77;;;12.63;;
22160;SDS011;49035;48.812;11.762;2022-09-14T00:11:26;17.17;;;13.40;;
22160;SDS011;49035;48.812;11.762;2022-09-14T00:13:53;25.98;;;13.52;;
22160;SDS011;49035;48.812;11.762;2022-09-14T00:16:39;18.58;;;13.90;;
22160;SDS011;49035;48.812;11.762;2022-09-14T00:19:07;24.10;;;14.13;;
22160;SDS011;49035;48.812;11.762;2022-09-14T00:21:39;25.08;;;14.55;;
22160;SDS011;49035;48.812;11.762;2022-09-14T00:24:06;20.95;;;13.38;;
22160;SDS011;49035;48.812;11.762;2022-09-14T00:26:34;20.95;;;14.25;;
22160;SDS011;49035;48.812;11.762;2022-09-14T00:29:00;17.77;;;11.93;;
22160;SDS011;49035;48.812;11.762;2022-09-14T00:31:33;16.17;;;11.57;;
22160;SDS011;49035;48.812;11.762;2022-09-14T00:34:01;19.30;;;12.98;;
22160;SDS011;49035;48.812;11.762;2022-09-14T00:36:28;18.65;;;13.05;;
22160;SDS011;49035;48.812;11.762;2022-09-14T00:38:55;16.90;;;12.00;;
22160;SDS011;49035;48.812;11.762;2022-09-14T00:41:22;24.13;;;13.48;;
22160;SDS011;49035;48.812;11.762;2022-09-14T00:46:39;15.75;;;11.70;;
22160;SDS011;49035;48.812;11.762;2022-09-14T00:51:46;19.42;;;12.75;;
22160;SDS011;49035;48.812;11.762;2022-09-14T00:54:32;16.15;;;12.77;;
22160;SDS011;49035;48.812;11.762;2022-09-14T00:57:19;16.98;;;12.15;;
22160;SDS011;49035;48.812;11.762;2022-09-14T00:59:46;21.27;;;13.20;;
22160;SDS011;49035;48.812;11.762;2022-09-14T01:02:14;20.63;;;13.30;;
22160;SDS011;49035;48.812;11.762;2022-09-14T01:04:41;21.88;;;13.43;;
22160;SDS011;49035;48.812;11.762;2022-09-14T01:15:35;15.60;;;12.13;;
22160;SDS011;49035;48.812;11.762;2022-09-14T01:18:17;17.05;;;11.98;;
22160;SDS011;49035;48.812;11.762;2022-09-14T01:26:04;24.40;;;13.55;;
22160;SDS011;49035;48.812;11.762;2022-09-14T01:31:23;19.15;;;13.30;;
22160;SDS011;49035;48.812;11.762;2022-09-14T01:34:03;21.85;;;13.40;;
22160;SDS011;49035;48.812;11.762;2022-09-14T01:36:45;19.98;;;13.43;;
22160;SDS011;49035;48.812;11.762;2022-09-14T01:39:15;20.17;;;13.45;;
22160;SDS011;49035;48.812;11.762;2022-09-14T01:41:43;20.60;;;12.95;;
22160;SDS011;49035;48.812;11.762;2022-09-14T01:47:16;17.20;;;13.63;;
22160;SDS011;49035;48.812;11.762;2022-09-14T01:49:51;15.63;;;12.02;;
22160;SDS011;49035;48.812;11.762;2022-09-14T01:52:26;17.38;;;11.85;;
22160;SDS011;49035;48.812;11.762;2022-09-14T01:55:07;19.27;;;12.63;;
22160;SDS011;49035;48.812;11.762;2022-09-14T01:57:39;28.85;;;13.98;;
22160;SDS011;49035;48.812;11.762;2022-09-14T02:00:08;23.63;;;14.23;;
22160;SDS011;49035;48.812;11.762;2022-09-14T02:02:46;18.48;;;13.70;;
22160;SDS011;49035;48.812;11.762;2022-09-14T02:05:36;20.67;;;13.23;;
22160;SDS011;49035;48.812;11.762;2022-09-14T02:08:12;16.48;;;12.80;;
22160;SDS011;49035;48.812;11.762;2022-09-14T02:10:37;17.13;;;12.88;;
22160;SDS011;49035;48.812;11.762;2022-09-14T02:13:04;20.48;;;13.65;;
22160;SDS011;49035;48.812;11.762;2022-09-14T02:15:31;24.58;;;14.48;;
22160;SDS011;49035;48.812;11.762;2022-09-14T02:17:58;23.77;;;13.20;;
22160;SDS011;49035;48.812;11.762;2022-09-14T02:20:26;20.42;;;14.20;;
22160;SDS011;49035;48.812;11.762;2022-09-14T02:23:08;15.80;;;12.55;;
22160;SDS011;49035;48.812;11.762;2022-09-14T02:25:34;17.58;;;13.25;;
22160;SDS011;49035;48.812;11.762;2022-09-14T02:28:01;20.30;;;14.13;;
22160;SDS011;49035;48.812;11.762;2022-09-14T02:30:29;20.30;;;13.65;;
22160;SDS011;49035;48.812;11.762;2022-09-14T02:35:51;20.33;;;14.38;;
22160;SDS011;49035;48.812;11.762;2022-09-14T02:38:40;20.60;;;14.18;;
22160;SDS011;49035;48.812;11.762;2022-09-14T02:41:17;25.38;;;16.85;;
22160;SDS011;49035;48.812;11.762;2022-09-14T02:44:08;27.38;;;18.02;;
22160;SDS011;49035;48.812;11.762;2022-09-14T02:46:54;27.63;;;16.83;;
22160;SDS011;49035;48.812;11.762;2022-09-14T02:55:03;25.95;;;17.42;;
22160;SDS011;49035;48.812;11.762;2022-09-14T03:00:27;22.05;;;16.75;;
22160;SDS011;49035;48.812;11.762;2022-09-14T03:02:55;28.98;;;18.65;;
22160;SDS011;49035;48.812;11.762;2022-09-14T03:05:20;28.88;;;19.10;;
22160;SDS011;49035;48.812;11.762;2022-09-14T03:07:46;30.20;;;20.52;;
22160;SDS011;49035;48.812;11.762;2022-09-14T03:10:12;31.05;;;19.52;;
22160;SDS011;49035;48.812;11.762;2022-09-14T03:12:37;28.83;;;19.13;;
22160;SDS011;49035;48.812;11.762;2022-09-14T03:15:04;30.17;;;20.05;;
22160;SDS011;49035;48.812;11.762;2022-09-14T03:17:30;34.20;;;20.05;;
22160;SDS011;49035;48.812;11.762;2022-09-14T03:19:55;35.22;;;21.75;;
22160;SDS011;49035;48.812;11.762;2022-09-14T03:22:21;35.92;;;23.00;;
22160;SDS011;49035;48.812;11.762;2022-09-14T03:24:46;33.38;;;22.00;;
22160;SDS011;49035;48.812;11.762;2022-09-14T03:27:12;41.00;;;23.25;;
22160;SDS011;49035;48.812;11.762;2022-09-14T03:29:37;41.58;;;22.55;;
22160;SDS011;49035;48.812;11.762;2022-09-14T03:32:03;32.53;;;22.33;;
22160;SDS011;49035;48.812;11.762;2022-09-14T03:34:29;36.55;;;22.42;;
22160;SDS011;49035;48.812;11.762;2022-09-14T03:36:54;33.63;;;21.38;;
22160;SDS011;49035;48.812;11.762;2022-09-14T03:39:20;33.08;;;21.45;;
22160;SDS011;49035;48.812;11.762;2022-09-14T03:41:45;36.60;;;23.23;;
22160;SDS011;49035;48.812;11.762;2022-09-14T03:44:11;36.42;;;22.23;;
22160;SDS011;49035;48.812;11.762;2022-09-14T03:46:36;37.80;;;21.30;;
22160;SDS011;49035;48.812;11.762;2022-09-14T03:49:02;31.48;;;21.80;;
22160;SDS011;49035;48.812;11.762;2022-09-14T03:51:28;36.97;;;21.80;;
22160;SDS011;49035;48.812;11.762;2022-09-14T03:53:53;35.25;;;21.65;;
22160;SDS011;49035;48.812;11.762;2022-09-14T03:56:20;36.10;;;23.17;;
22160;SDS011;49035;48.812;11.762;2022-09-14T03:58:47;36.40;;;22.02;;
22160;SDS011;49035;48.812;11.762;2022-09-14T04:01:15;38.63;;;24.20;;
22160;SDS011;49035;48.812;11.762;2022-09-14T04:03:42;34.97;;;22.50;;
22160;SDS011;49035;48.812;11.762;2022-09-14T04:06:08;30.67;;;22.02;;
22160;SDS011;49035;48.812;11.762;2022-09-14T04:08:35;40.60;;;23.30;;
22160;SDS011;49035;48.812;11.762;2022-09-14T04:13:42;33.78;;;22.08;;
22160;SDS011;49035;48.812;11.762;2022-09-14T04:16:08;34.90;;;21.75;;
22160;SDS011;49035;48.812;11.762;2022-09-14T04:18:34;38.25;;;23.58;;
22160;SDS011;49035;48.812;11.762;2022-09-14T04:21:01;50.47;;;25.55;;
22160;SDS011;49035;48.812;11.762;2022-09-14T04:23:30;44.20;;;26.10;;
22160;SDS011;49035;48.812;11.762;2022-09-14T04:25:56;44.75;;;26.33;;
22160;SDS011;49035;48.812;11.762;2022-09-14T04:28:21;47.40;;;26.25;;
22160;SDS011;49035;48.812;11.762;2022-09-14T04:30:57;43.58;;;26.60;;
22160;SDS011;49035;48.812;11.762;2022-09-14T04:33:24;47.75;;;27.25;;
22160;SDS011;49035;48.812;11.762;2022-09-14T04:35:57;47.97;;;25.77;;
22160;SDS011;49035;48.812;11.762;2022-09-14T04:38:23;45.08;;;26.58;;
22160;SDS011;49035;48.812;11.762;2022-09-14T04:40:48;56.65;;;28.05;;
22160;SDS011;49035;48.812;11.762;2022-09-14T04:43:14;46.25;;;25.75;;
22160;SDS011;49035;48.812;11.762;2022-09-14T04:45:40;41.60;;;25.10;;
22160;SDS011;49035;48.812;11.762;2022-09-14T04:48:05;45.10;;;26.02;;
22160;SDS011;49035;48.812;11.762;2022-09-14T04:50:31;45.38;;;26.08;;
22160;SDS011;49035;48.812;11.762;2022-09-14T04:52:57;46.90;;;26.85;;
22160;SDS011;49035;48.812;11.762;2022-09-14T04:55:22;46.17;;;25.95;;
22160;SDS011;49035;48.812;11.762;2022-09-14T04:57:49;48.90;;;27.10;;
22160;SDS011;49035;48.812;11.762;2022-09-14T05:00:15;48.90;;;26.85;;
22160;SDS011;49035;48.812;11.762;2022-09-14T05:02:40;54.58;;;29.65;;
22160;SDS011;49035;48.812;11.762;2022-09-14T05:05:06;53.15;;;28.23;;
22160;SDS011;49035;48.812;11.762;2022-09-14T05:07:32;52.83;;;30.48;;
22160;SDS011;49035;48.812;11.762;2022-09-14T05:09:58;57.30;;;28.85;;
22160;SDS011;49035;48.812;11.762;2022-09-14T05:12:23;56.88;;;29.55;;
22160;SDS011;49035;48.812;11.762;2022-09-14T05:14:49;54.58;;;31.05;;
22160;SDS011;49035;48.812;11.762;2022-09-14T05:17:14;50.97;;;28.80;;
22160;SDS011;49035;48.812;11.762;2022-09-14T05:19:40;49.03;;;29.48;;
22160;SDS011;49035;48.812;11.762;2022-09-14T05:22:05;45.30;;;27.40;;
22160;SDS011;49035;48.812;11.762;2022-09-14T05:24:31;53.25;;;30.98;;
22160;SDS011;49035;48.812;11.762;2022-09-14T05:26:56;56.85;;;31.30;;
22160;SDS011;49035;48.812;11.762;2022-09-14T05:29:22;78.13;;;39.33;;
22160;SDS011;49035;48.812;11.762;2022-09-14T05:31:48;68.05;;;35.30;;
22160;SDS011;49035;48.812;11.762;2022-09-14T05:34:13;58.60;;;31.67;;
22160;SDS011;49035;48.812;11.762;2022-09-14T05:36:39;63.00;;;34.40;;
22160;SDS011;49035;48.812;11.762;2022-09-14T05:39:05;57.45;;;31.73;;
22160;SDS011;49035;48.812;11.762;2022-09-14T05:41:32;57.25;;;30.85;;
22160;SDS011;49035;48.812;11.762;2022-09-14T05:43:58;54.83;;;31.67;;
22160;SDS011;49035;48.812;11.762;2022-09-14T05:46:24;51.58;;;30.17;;
22160;SDS011;49035;48.812;11.762;2022-09-14T05:48:50;54.60;;;29.90;;
22160;SDS011;49035;48.812;11.762;2022-09-14T05:51:25;51.15;;;29.52;;
22160;SDS011;49035;48.812;11.762;2022-09-14T05:53:55;51.45;;;29.30;;
22160;SDS011;49035;48.812;11.762;2022-09-14T05:56:23;48.85;;;29.20;;
22160;SDS011;49035;48.812;11.762;2022-09-14T05:58:50;43.72;;;27.70;;
22160;SDS011;49035;48.812;11.762;2022-09-14T06:01:17;49.85;;;28.83;;
22160;SDS011;49035;48.812;11.762;2022-09-14T06:03:54;45.67;;;28.00;;
22160;SDS011;49035;48.812;11.762;2022-09-14T06:06:21;52.63;;;29.65;;
22160;SDS011;49035;48.812;11.762;2022-09-14T06:08:48;45.03;;;28.00;;
22160;SDS011;49035;48.812;11.762;2022-09-14T06:11:17;53.83;;;30.63;;
22160;SDS011;49035;48.812;11.762;2022-09-14T06:13:44;54.97;;;28.90;;
22160;SDS011;49035;48.812;11.762;2022-09-14T06:16:14;52.75;;;30.65;;
22160;SDS011;49035;48.812;11.762;2022-09-14T06:18:42;54.15;;;31.55;;
22160;SDS011;49035;48.812;11.762;2022-09-14T06:21:09;56.10;;;32.25;;
22160;SDS011;49035;48.812;11.762;2022-09-14T06:23:36;64.90;;;34.70;;
22160;SDS011;49035;48.812;11.762;2022-09-14T06:26:02;58.70;;;33.97;;
22160;SDS011;49035;48.812;11.762;2022-09-14T06:28:29;70.40;;;37.13;;
22160;SDS011;49035;48.812;11.762;2022-09-14T06:30:55;63.38;;;36.38;;
22160;SDS011;49035;48.812;11.762;2022-09-14T06:33:21;65.13;;;36.53;;
22160;SDS011;49035;48.812;11.762;2022-09-14T06:36:00;55.22;;;32.28;;
22160;SDS011;49035;48.812;11.762;2022-09-14T06:38:36;54.28;;;31.65;;
22160;SDS011;49035;48.812;11.762;2022-09-14T06:41:06;53.65;;;31.17;;
22160;SDS011;49035;48.812;11.762;2022-09-14T06:43:34;49.40;;;30.83;;
22160;SDS011;49035;48.812;11.762;2022-09-14T06:46:05;48.15;;;29.00;;
22160;SDS011;49035;48.812;11.762;2022-09-14T06:48:35;49.38;;;29.60;;
22160;SDS011;49035;48.812;11.762;2022-09-14T06:51:19;49.90;;;29.25;;
22160;SDS011;49035;48.812;11.762;2022-09-14T06:53:49;45.28;;;31.17;;
22160;SDS011;49035;48.812;11.762;2022-09-14T06:56:16;48.25;;;29.67;;
22160;SDS011;49035;48.812;11.762;2022-09-14T06:58:42;57.05;;;33.83;;
22160;SDS011;49035;48.812;11.762;2022-09-14T07:01:18;42.03;;;27.23;;
22160;SDS011;49035;48.812;11.762;2022-09-14T07:03:44;42.70;;;27.90;;
22160;SDS011;49035;48.812;11.762;2022-09-14T07:06:18;40.25;;;27.17;;
22160;SDS011;49035;48.812;11.762;2022-09-14T07:08:46;35.03;;;24.52;;
22160;SDS011;49035;48.812;11.762;2022-09-14T07:11:14;24.90;;;19.30;;
22160;SDS011;49035;48.812;11.762;2022-09-14T07:13:41;21.23;;;16.95;;
22160;SDS011;49035;48.812;11.762;2022-09-14T07:16:07;19.67;;;16.20;;
22160;SDS011;49035;48.812;11.762;2022-09-14T07:18:33;18.85;;;15.10;;
22160;SDS011;49035;48.812;11.762;2022-09-14T07:21:03;15.68;;;13.65;;
22160;SDS011;49035;48.812;11.762;2022-09-14T07:23:30;14.77;;;13.18;;
22160;SDS011;49035;48.812;11.762;2022-09-14T07:26:00;15.68;;;13.20;;
22160;SDS011;49035;48.812;11.762;2022-09-14T07:28:27;13.40;;;11.70;;
22160;SDS011;49035;48.812;11.762;2022-09-14T07:30:53;14.80;;;12.55;;
22160;SDS011;49035;48.812;11.762;2022-09-14T07:33:19;14.63;;;11.55;;
22160;SDS011;49035;48.812;11.762;2022-09-14T07:35:45;16.42;;;13.02;;
22160;SDS011;49035;48.812;11.762;2022-09-14T07:38:10;14.90;;;12.32;;
22160;SDS011;49035;48.812;11.762;2022-09-14T07:40:36;14.43;;;12.32;;
22160;SDS011;49035;48.812;11.762;2022-09-14T07:43:02;16.70;;;13.23;;
22160;SDS011;49035;48.812;11.762;2022-09-14T07:45:27;12.15;;;10.55;;
22160;SDS011;49035;48.812;11.762;2022-09-14T07:47:53;14.90;;;10.88;;
22160;SDS011;49035;48.812;11.762;2022-09-14T07:50:20;12.57;;;11.15;;
22160;SDS011;49035;48.812;11.762;2022-09-14T07:52:48;14.07;;;11.63;;
22160;SDS011;49035;48.812;11.762;2022-09-14T07:55:15;15.02;;;12.00;;
22160;SDS011;49035;48.812;11.762;2022-09-14T07:57:42;11.63;;;9.60;;
22160;SDS011;49035;48.812;11.762;2022-09-14T08:00:08;16.65;;;12.15;;
22160;SDS011;49035;48.812;11.762;2022-09-14T08:02:34;12.60;;;11.27;;
22160;SDS011;49035;48.812;11.762;2022-09-14T08:05:00;14.48;;;11.52;;
22160;SDS011;49035;48.812;11.762;2022-09-14T08:07:26;12.88;;;10.80;;
22160;SDS011;49035;48.812;11.762;2022-09-14T08:09:52;13.63;;;10.32;;
22160;SDS011;49035;48.812;11.762;2022-09-14T08:12:17;12.45;;;11.13;;
22160;SDS011;49035;48.812;11.762;2022-09-14T08:14:43;15.52;;;11.18;;
22160;SDS011;49035;48.812;11.762;2022-09-14T08:17:09;11.55;;;10.07;;
22160;SDS011;49035;48.812;11.762;2022-09-14T08:19:34;14.80;;;12.20;;
22160;SDS011;49035;48.812;11.762;2022-09-14T08:22:01;13.50;;;11.10;;
22160;SDS011;49035;48.812;11.762;2022-09-14T08:24:28;12.43;;;11.07;;
22160;SDS011;49035;48.812;11.762;2022-09-14T08:26:54;13.82;;;11.55;;
22160;SDS011;49035;48.812;11.762;2022-09-14T08:29:19;17.58;;;11.40;;
22160;SDS011;49035;48.812;11.762;2022-09-14T08:31:45;13.50;;;12.02;;
22160;SDS011;49035;48.812;11.762;2022-09-14T08:34:12;12.48;;;11.13;;
22160;SDS011;49035;48.812;11.762;2022-09-14T08:36:39;20.08;;;11.57;;
22160;SDS011;49035;48.812;11.762;2022-09-14T08:39:06;12.20;;;10.95;;
22160;SDS011;49035;48.812;11.762;2022-09-14T08:41:36;14.32;;;12.13;;
22160;SDS011;49035;48.812;11.762;2022-09-14T08:44:22;12.52;;;11.23;;
22160;SDS011;49035;48.812;11.762;2022-09-14T08:47:00;12.60;;;11.27;;
22160;SDS011;49035;48.812;11.762;2022-09-14T08:55:58;12.98;;;10.23;;
22160;SDS011;49035;48.812;11.762;2022-09-14T09:00:41;9.38;;;8.18;;
22160;SDS011;49035;48.812;11.762;2022-09-14T09:06:05;9.60;;;7.90;;
22160;SDS011;49035;48.812;11.762;2022-09-14T09:08:41;9.35;;;7.47;;
22160;SDS011;49035;48.812;11.762;2022-09-14T09:11:42;7.53;;;6.72;;
22160;SDS011;49035;48.812;11.762;2022-09-14T09:14:17;7.18;;;6.43;;
22160;SDS011;49035;48.812;11.762;2022-09-14T09:16:48;9.25;;;6.80;;
22160;SDS011;49035;48.812;11.762;2022-09-14T09:19:18;7.85;;;6.88;;
22160;SDS011;49035;48.812;11.762;2022-09-14T09:21:48;8.10;;;5.60;;
22160;SDS011;49035;48.812;11.762;2022-09-14T09:24:29;7.60;;;5.47;;
22160;SDS011;49035;48.812;11.762;2022-09-14T09:27:08;5.50;;;4.82;;
22160;SDS011;49035;48.812;11.762;2022-09-14T09:29:38;6.07;;;4.88;;
22160;SDS011;49035;48.812;11.762;2022-09-14T09:32:05;6.28;;;4.63;;
22160;SDS011;49035;48.812;11.762;2022-09-14T09:34:36;9.75;;;4.70;;
22160;SDS011;49035;48.812;11.762;2022-09-14T09:37:02;6.25;;;4.75;;
22160;SDS011;49035;48.812;11.762;2022-09-14T09:39:29;6.90;;;4.38;;
22160;SDS011;49035;48.812;11.762;2022-09-14T09:42:04;6.93;;;3.88;;
22160;SDS011;49035;48.812;11.762;2022-09-14T09:47:38;6.88;;;3.75;;
22160;SDS011;49035;48.812;11.762;2022-09-14T09:50:15;5.53;;;3.80;;
22160;SDS011;49035;48.812;11.762;2022-09-14T09:52:54;6.50;;;3.72;;
22160;SDS011;49035;48.812;11.762;2022-09-14T09:55:24;4.65;;;3.38;;
22160;SDS011;49035;48.812;11.762;2022-09-14T09:57:55;4.93;;;3.22;;
22160;SDS011;49035;48.812;11.762;2022-09-14T10:00:27;6.75;;;3.47;;
22160;SDS011;49035;48.812;11.762;2022-09-14T10:02:56;3.75;;;3.28;;
22160;SDS011;49035;48.812;11.762;2022-09-14T10:05:23;6.18;;;3.35;;
22160;SDS011;49035;48.812;11.762;2022-09-14T10:08:03;6.18;;;3.35;;
22160;SDS011;49035;48.812;11.762;2022-09-14T10:12:59;5.45;;;2.83;;
22160;SDS011;49035;48.812;11.762;2022-09-14T10:15:29;5.82;;;2.90;;
22160;SDS011;49035;48.812;11.762;2022-09-14T10:21:23;3.13;;;2.50;;
22160;SDS011;49035;48.812;11.762;2022-09-14T10:23:24;6.10;;;3.08;;
22160;SDS011;49035;48.812;11.762;2022-09-14T10:28:36;3.20;;;2.88;;
22160;SDS011;49035;48.812;11.762;2022-09-14T10:33:44;6.30;;;2.80;;
22160;SDS011;49035;48.812;11.762;2022-09-14T10:38:52;2.75;;;2.30;;
22160;SDS011;49035;48.812;11.762;2022-09-14T10:52:46;4.07;;;2.42;;
22160;SDS011;49035;48.812;11.762;2022-09-14T11:01:07;4.18;;;2.67;;
22160;SDS011;49035;48.812;11.762;2022-09-14T11:12:10;8.98;;;2.50;;
22160;SDS011;49035;48.812;11.762;2022-09-14T11:14:43;4.53;;;2.90;;
22160;SDS011;49035;48.812;11.762;2022-09-14T11:20:06;5.97;;;2.33;;
22160;SDS011;49035;48.812;11.762;2022-09-14T11:27:51;3.67;;;2.25;;
22160;SDS011;49035;48.812;11.762;2022-09-14T11:30:46;6.90;;;2.35;;
22160;SDS011;49035;48.812;11.762;2022-09-14T11:33:20;8.82;;;2.70;;
22160;SDS011;49035;48.812;11.762;2022-09-14T11:35:59;8.20;;;2.85;;
22160;SDS011;49035;48.812;11.762;2022-09-14T11:38:30;3.90;;;2.38;;
22160;SDS011;49035;48.812;11.762;2022-09-14T11:43:51;5.38;;;2.60;;
22160;SDS011;49035;48.812;11.762;2022-09-14T11:46:38;4.32;;;2.28;;
22160;SDS011;49035;48.812;11.762;2022-09-14T11:52:00;4.47;;;2.30;;
22160;SDS011;49035;48.812;11.762;2022-09-14T11:54:41;3.80;;;2.20;;
22160;SDS011;49035;48.812;11.762;2022-09-14T11:57:11;6.28;;;2.30;;
22160;SDS011;49035;48.812;11.762;2022-09-14T12:12:38;7.78;;;2.20;;
22160;SDS011;49035;48.812;11.762;2022-09-14T12:31:04;5.68;;;2.20;;
22160;SDS011;49035;48.812;11.762;2022-09-14T12:36:06;3.53;;;1.80;;
22160;SDS011;49035;48.812;11.762;2022-09-14T12:51:23;8.13;;;2.00;;
22160;SDS011;49035;48.812;11.762;2022-09-14T12:54:40;5.88;;;2.00;;
22160;SDS011;49035;48.812;11.762;2022-09-14T13:04:37;4.43;;;2.00;;
22160;SDS011;49035;48.812;11.762;2022-09-14T13:07:06;10.63;;;2.35;;
22160;SDS011;49035;48.812;11.762;2022-09-14T13:09:39;4.40;;;2.25;;
22160;SDS011;49035;48.812;11.762;2022-09-14T13:12:11;3.55;;;1.85;;
22160;SDS011;49035;48.812;11.762;2022-09-14T13:14:46;3.70;;;1.85;;
22160;SDS011;49035;48.812;11.762;2022-09-14T13:17:26;4.43;;;1.70;;
22160;SDS011;49035;48.812;11.762;2022-09-14T13:19:52;6.75;;;2.22;;
22160;SDS011;49035;48.812;11.762;2022-09-14T13:22:21;5.00;;;2.28;;
22160;SDS011;49035;48.812;11.762;2022-09-14T13:24:48;3.83;;;1.80;;
22160;SDS011;49035;48.812;11.762;2022-09-14T13:27:25;5.30;;;2.00;;
22160;SDS011;49035;48.812;11.762;2022-09-14T13:30:00;3.97;;;2.00;;
22160;SDS011;49035;48.812;11.762;2022-09-14T13:32:38;4.20;;;2.22;;
22160;SDS011;49035;48.812;11.762;2022-09-14T13:35:14;4.50;;;2.33;;
22160;SDS011;49035;48.812;11.762;2022-09-14T13:37:49;6.15;;;2.20;;
22160;SDS011;49035;48.812;11.762;2022-09-14T13:40:15;7.00;;;2.25;;
22160;SDS011;49035;48.812;11.762;2022-09-14T13:42:46;5.88;;;2.05;;
22160;SDS011;49035;48.812;11.762;2022-09-14T13:45:12;7.03;;;2.08;;
22160;SDS011;49035;48.812;11.762;2022-09-14T13:47:38;7.28;;;1.80;;
22160;SDS011;49035;48.812;11.762;2022-09-14T13:50:04;7.00;;;2.40;;
22160;SDS011;49035;48.812;11.762;2022-09-14T13:52:33;4.22;;;1.90;;
22160;SDS011;49035;48.812;11.762;2022-09-14T13:55:20;4.50;;;1.92;;
22160;SDS011;49035;48.812;11.762;2022-09-14T13:58:14;4.53;;;2.08;;
22160;SDS011;49035;48.812;11.762;2022-09-14T14:00:47;5.15;;;2.15;;
22160;SDS011;49035;48.812;11.762;2022-09-14T14:03:19;3.75;;;1.75;;
22160;SDS011;49035;48.812;11.762;2022-09-14T14:05:56;6.93;;;2.03;;
22160;SDS011;49035;48.812;11.762;2022-09-14T14:08:27;7.90;;;2.50;;
22160;SDS011;49035;48.812;11.762;2022-09-14T14:11:01;3.65;;;1.98;;
22160;SDS011;49035;48.812;11.762;2022-09-14T14:13:30;6.82;;;2.35;;
22160;SDS011;49035;48.812;11.762;2022-09-14T14:18:41;4.90;;;2.38;;
22160;SDS011;49035;48.812;11.762;2022-09-14T14:21:34;4.65;;;2.10;;
22160;SDS011;49035;48.812;11.762;2022-09-14T14:26:50;4.45;;;1.98;;
22160;SDS011;49035;48.812;11.762;2022-09-14T14:29:18;5.50;;;2.03;;
22160;SDS011;49035;48.812;11.762;2022-09-14T14:31:44;4.40;;;1.95;;
22160;SDS011;49035;48.812;11.762;2022-09-14T14:34:21;4.68;;;2.17;;
22160;SDS011;49035;48.812;11.762;2022-09-14T14:36:51;6.00;;;1.92;;
22160;SDS011;49035;48.812;11.762;2022-09-14T14:39:22;4.15;;;1.98;;
22160;SDS011;49035;48.812;11.762;2022-09-14T14:41:48;4.50;;;2.15;;
22160;SDS011;49035;48.812;11.762;2022-09-14T14:44:18;3.92;;;2.10;;
22160;SDS011;49035;48.812;11.762;2022-09-14T14:46:48;8.25;;;2.53;;
22160;SDS011;49035;48.812;11.762;2022-09-14T14:49:15;6.65;;;2.58;;
22160;SDS011;49035;48.812;11.762;2022-09-14T14:51:42;4.10;;;2.20;;
22160;SDS011;49035;48.812;11.762;2022-09-14T14:54:08;7.53;;;2.55;;
22160;SDS011;49035;48.812;11.762;2022-09-14T14:56:37;3.30;;;2.10;;
22160;SDS011;49035;48.812;11.762;2022-09-14T14:59:14;8.38;;;2.65;;
22160;SDS011;49035;48.812;11.762;2022-09-14T15:01:49;6.53;;;2.72;;
22160;SDS011;49035;48.812;11.762;2022-09-14T15:04:16;6.00;;;2.83;;
22160;SDS011;49035;48.812;11.762;2022-09-14T15:06:42;5.25;;;2.65;;
22160;SDS011;49035;48.812;11.762;2022-09-14T15:09:11;7.82;;;2.80;;
22160;SDS011;49035;48.812;11.762;2022-09-14T15:11:49;5.88;;;3.40;;
22160;SDS011;49035;48.812;11.762;2022-09-14T15:14:18;5.90;;;2.90;;
22160;SDS011;49035;48.812;11.762;2022-09-14T15:16:45;7.63;;;3.10;;
22160;SDS011;49035;48.812;11.762;2022-09-14T15:19:11;8.43;;;3.10;;
22160;SDS011;49035;48.812;11.762;2022-09-14T15:21:37;6.63;;;3.15;;
22160;SDS011;49035;48.812;11.762;2022-09-14T15:24:04;8.90;;;4.03;;
22160;SDS011;49035;48.812;11.762;2022-09-14T15:26:30;6.75;;;4.10;;
22160;SDS011;49035;48.812;11.762;2022-09-14T15:28:56;6.88;;;3.92;;
22160;SDS011;49035;48.812;11.762;2022-09-14T15:31:21;7.03;;;3.88;;
22160;SDS011;49035;48.812;11.762;2022-09-14T15:33:47;8.57;;;3.85;;
22160;SDS011;49035;48.812;11.762;2022-09-14T15:36:12;4.53;;;3.47;;
22160;SDS011;49035;48.812;11.762;2022-09-14T15:38:58;6.00;;;3.88;;
22160;SDS011;49035;48.812;11.762;2022-09-14T15:41:23;10.07;;;3.85;;
22160;SDS011;49035;48.812;11.762;2022-09-14T15:43:49;4.82;;;3.50;;
22160;SDS011;49035;48.812;11.762;2022-09-14T15:46:14;7.85;;;3.75;;
22160;SDS011;49035;48.812;11.762;2022-09-14T15:48:40;8.55;;;3.05;;
22160;SDS011;49035;48.812;11.762;2022-09-14T15:51:08;8.95;;;3.40;;
22160;SDS011;49035;48.812;11.762;2022-09-14T15:53:35;4.55;;;3.55;;
22160;SDS011;49035;48.812;11.762;2022-09-14T15:56:02;3.85;;;2.95;;
22160;SDS011;49035;48.812;11.762;2022-09-14T15:58:34;4.82;;;3.38;;
22160;SDS011;49035;48.812;11.762;2022-09-14T16:01:05;4.32;;;3.25;;
22160;SDS011;49035;48.812;11.762;2022-09-14T16:03:34;4.32;;;2.42;;
22160;SDS011;49035;48.812;11.762;2022-09-14T16:06:01;3.63;;;2.80;;
22160;SDS011;49035;48.812;11.762;2022-09-14T16:08:27;7.82;;;2.70;;
22160;SDS011;49035;48.812;11.762;2022-09-14T16:10:56;4.13;;;2.33;;
22160;SDS011;49035;48.812;11.762;2022-09-14T16:13:23;7.05;;;2.70;;
22160;SDS011;49035;48.812;11.762;2022-09-14T16:15:49;4.85;;;2.00;;
22160;SDS011;49035;48.812;11.762;2022-09-14T16:18:14;3.55;;;1.95;;
22160;SDS011;49035;48.812;11.762;2022-09-14T16:20:40;5.65;;;2.10;;
22160;SDS011;49035;48.812;11.762;2022-09-14T16:23:05;5.05;;;2.40;;
22160;SDS011;49035;48.812;11.762;2022-09-14T16:25:35;5.57;;;2.47;;
22160;SDS011;49035;48.812;11.762;2022-09-14T16:28:04;7.93;;;2.05;;
22160;SDS011;49035;48.812;11.762;2022-09-14T16:30:30;3.65;;;2.05;;
22160;SDS011;49035;48.812;11.762;2022-09-14T16:32:56;6.10;;;1.75;;
22160;SDS011;49035;48.812;11.762;2022-09-14T16:35:21;4.20;;;1.98;;
22160;SDS011;49035;48.812;11.762;2022-09-14T16:37:47;4.05;;;2.00;;
22160;SDS011;49035;48.812;11.762;2022-09-14T16:40:13;6.70;;;2.28;;
22160;SDS011;49035;48.812;11.762;2022-09-14T16:42:39;4.95;;;1.77;;
22160;SDS011;49035;48.812;11.762;2022-09-14T16:45:05;4.22;;;2.28;;
22160;SDS011;49035;48.812;11.762;2022-09-14T16:47:31;6.85;;;1.60;;
22160;SDS011;49035;48.812;11.762;2022-09-14T16:49:56;3.33;;;1.75;;
22160;SDS011;49035;48.812;11.762;2022-09-14T16:52:22;6.47;;;2.15;;
22160;SDS011;49035;48.812;11.762;2022-09-14T16:54:48;5.75;;;2.35;;
22160;SDS011;49035;48.812;11.762;2022-09-14T16:57:13;6.72;;;1.90;;
22160;SDS011;49035;48.812;11.762;2022-09-14T16:59:39;4.60;;;1.90;;
22160;SDS011;49035;48.812;11.762;2022-09-14T17:02:05;5.57;;;2.47;;
22160;SDS011;49035;48.812;11.762;2022-09-14T17:04:30;9.05;;;2.30;;
22160;SDS011;49035;48.812;11.762;2022-09-14T17:06:56;4.22;;;2.30;;
22160;SDS011;49035;48.812;11.762;2022-09-14T17:09:26;3.08;;;2.13;;
22160;SDS011;49035;48.812;11.762;2022-09-14T17:11:53;3.97;;;2.00;;
22160;SDS011;49035;48.812;11.762;2022-09-14T17:14:21;4.18;;;1.98;;
22160;SDS011;49035;48.812;11.762;2022-09-14T17:16:51;4.28;;;2.33;;
22160;SDS011;49035;48.812;11.762;2022-09-14T17:19:17;5.50;;;2.40;;